sensor_id;sensor_type;location;lat;lon;timestamp;P1;durP1;ratioP1;P2;durP2;ratioP2
15425;SDS011;7812;50.072;7.036;2023-04-25T00:01:38;13.57;;;11.50;;
15425;SDS011;7812;50.072;7.036;2023-04-25T00:04:05;14.80;;;11.97;;
15425;SDS011;7812;50.072;7.036;2023-04-25T00:06:34;11.53;;;10.00;;
15425;SDS011;7812;50.072;7.036;2023-04-25T00:09:01;7.70;;;5.63;;
15425;SDS011;7812;50.072;7.036;2023-04-25T00:11:28;6.87;;;6.17;;
15425;SDS011;7812;50.072;7.036;2023-04-25T00:13:55;6.67;;;6.07;;
15425;SDS011;7812;50.072;7.036;2023-04-25T00:16:22;7.17;;;6.17;;
15425;SDS011;7812;50.072;7.036;2023-04-25T00:18:48;8.90;;;8.00;;
15425;SDS011;7812;50.072;7.036;2023-04-25T00:21:17;11.00;;;9.50;;
15425;SDS011;7812;50.072;7.036;2023-04-25T00:23:44;15.83;;;12.83;;
15425;SDS011;7812;50.072;7.036;2023-04-25T00:26:11;12.43;;;11.13;;
15425;SDS011;7812;50.072;7.036;2023-04-25T00:28:36;18.13;;;14.87;;
15425;SDS011;7812;50.072;7.036;2023-04-25T00:31:02;16.93;;;13.47;;
15425;SDS011;7812;50.072;7.036;2023-04-25T00:33:28;7.37;;;6.67;;
15425;SDS011;7812;50.072;7.036;2023-04-25T00:35:55;11.20;;;9.93;;
15425;SDS011;7812;50.072;7.036;2023-04-25T00:38:21;8.23;;;7.43;;
15425;SDS011;7812;50.072;7.036;2023-04-25T00:40:46;9.10;;;8.20;;
15425;SDS011;7812;50.072;7.036;2023-04-25T00:43:12;8.67;;;7.60;;
15425;SDS011;7812;50.072;7.036;2023-04-25T00:45:39;9.80;;;8.63;;
15425;SDS011;7812;50.072;7.036;2023-04-25T00:48:05;11.63;;;8.97;;
15425;SDS011;7812;50.072;7.036;2023-04-25T00:50:32;7.50;;;6.80;;
15425;SDS011;7812;50.072;7.036;2023-04-25T00:53:00;10.30;;;9.03;;
15425;SDS011;7812;50.072;7.036;2023-04-25T00:55:26;7.23;;;6.53;;
15425;SDS011;7812;50.072;7.036;2023-04-25T00:57:52;10.87;;;9.53;;
15425;SDS011;7812;50.072;7.036;2023-04-25T01:00:18;8.33;;;6.97;;
15425;SDS011;7812;50.072;7.036;2023-04-25T01:02:45;12.97;;;11.20;;
15425;SDS011;7812;50.072;7.036;2023-04-25T01:05:11;9.03;;;7.97;;
15425;SDS011;7812;50.072;7.036;2023-04-25T01:07:37;9.67;;;8.43;;
15425;SDS011;7812;50.072;7.036;2023-04-25T01:10:03;7.00;;;6.30;;
15425;SDS011;7812;50.072;7.036;2023-04-25T01:12:31;17.50;;;14.80;;
15425;SDS011;7812;50.072;7.036;2023-04-25T01:14:56;10.83;;;9.73;;
15425;SDS011;7812;50.072;7.036;2023-04-25T01:17:22;7.13;;;6.43;;
15425;SDS011;7812;50.072;7.036;2023-04-25T01:19:49;7.93;;;7.10;;
15425;SDS011;7812;50.072;7.036;2023-04-25T01:22:16;8.00;;;7.03;;
15425;SDS011;7812;50.072;7.036;2023-04-25T01:24:42;8.20;;;7.40;;
15425;SDS011;7812;50.072;7.036;2023-04-25T01:27:09;7.47;;;6.47;;
15425;SDS011;7812;50.072;7.036;2023-04-25T01:29:35;8.43;;;6.53;;
15425;SDS011;7812;50.072;7.036;2023-04-25T01:32:01;8.57;;;7.67;;
15425;SDS011;7812;50.072;7.036;2023-04-25T01:34:28;8.17;;;7.30;;
15425;SDS011;7812;50.072;7.036;2023-04-25T01:36:54;7.63;;;6.70;;
15425;SDS011;7812;50.072;7.036;2023-04-25T01:39:20;7.57;;;6.10;;
15425;SDS011;7812;50.072;7.036;2023-04-25T01:41:46;8.20;;;7.37;;
15425;SDS011;7812;50.072;7.036;2023-04-25T01:44:13;7.20;;;6.47;;
15425;SDS011;7812;50.072;7.036;2023-04-25T01:46:48;8.70;;;7.33;;
15425;SDS011;7812;50.072;7.036;2023-04-25T01:49:14;8.30;;;7.17;;
15425;SDS011;7812;50.072;7.036;2023-04-25T01:51:41;7.90;;;7.10;;
15425;SDS011;7812;50.072;7.036;2023-04-25T01:54:07;8.73;;;7.83;;
15425;SDS011;7812;50.072;7.036;2023-04-25T01:56:36;11.20;;;9.93;;
15425;SDS011;7812;50.072;7.036;2023-04-25T01:59:03;9.80;;;7.47;;
15425;SDS011;7812;50.072;7.036;2023-04-25T02:01:30;11.03;;;9.33;;
15425;SDS011;7812;50.072;7.036;2023-04-25T02:03:56;10.17;;;8.47;;
15425;SDS011;7812;50.072;7.036;2023-04-25T02:06:21;7.53;;;6.80;;
15425;SDS011;7812;50.072;7.036;2023-04-25T02:08:48;8.50;;;7.50;;
15425;SDS011;7812;50.072;7.036;2023-04-25T02:11:15;7.63;;;6.57;;
15425;SDS011;7812;50.072;7.036;2023-04-25T02:13:41;13.83;;;8.80;;
15425;SDS011;7812;50.072;7.036;2023-04-25T02:16:07;9.90;;;8.10;;
15425;SDS011;7812;50.072;7.036;2023-04-25T02:18:32;7.30;;;6.57;;
15425;SDS011;7812;50.072;7.036;2023-04-25T02:21:01;10.60;;;7.73;;
15425;SDS011;7812;50.072;7.036;2023-04-25T02:23:28;8.43;;;7.17;;
15425;SDS011;7812;50.072;7.036;2023-04-25T02:25:54;10.43;;;9.30;;
15425;SDS011;7812;50.072;7.036;2023-04-25T02:28:23;11.20;;;8.13;;
15425;SDS011;7812;50.072;7.036;2023-04-25T02:30:49;7.63;;;6.83;;
15425;SDS011;7812;50.072;7.036;2023-04-25T02:33:15;10.70;;;9.60;;
15425;SDS011;7812;50.072;7.036;2023-04-25T02:35:42;9.67;;;8.67;;
15425;SDS011;7812;50.072;7.036;2023-04-25T02:38:07;7.90;;;7.13;;
15425;SDS011;7812;50.072;7.036;2023-04-25T02:40:33;11.00;;;9.17;;
15425;SDS011;7812;50.072;7.036;2023-04-25T02:42:59;8.63;;;7.73;;
15425;SDS011;7812;50.072;7.036;2023-04-25T02:45:24;9.60;;;8.60;;
15425;SDS011;7812;50.072;7.036;2023-04-25T02:47:50;8.23;;;7.43;;
15425;SDS011;7812;50.072;7.036;2023-04-25T02:50:16;8.00;;;6.93;;
15425;SDS011;7812;50.072;7.036;2023-04-25T02:52:43;7.27;;;6.53;;
15425;SDS011;7812;50.072;7.036;2023-04-25T02:55:09;6.93;;;6.23;;
15425;SDS011;7812;50.072;7.036;2023-04-25T02:57:35;7.30;;;6.60;;
15425;SDS011;7812;50.072;7.036;2023-04-25T03:00:01;7.67;;;6.93;;
15425;SDS011;7812;50.072;7.036;2023-04-25T03:02:29;9.13;;;7.53;;
15425;SDS011;7812;50.072;7.036;2023-04-25T03:04:55;8.67;;;7.60;;
15425;SDS011;7812;50.072;7.036;2023-04-25T03:07:20;8.20;;;7.20;;
15425;SDS011;7812;50.072;7.036;2023-04-25T03:09:46;7.90;;;7.00;;
15425;SDS011;7812;50.072;7.036;2023-04-25T03:12:12;7.57;;;6.60;;
15425;SDS011;7812;50.072;7.036;2023-04-25T03:14:37;9.83;;;8.03;;
15425;SDS011;7812;50.072;7.036;2023-04-25T03:17:03;9.47;;;7.80;;
15425;SDS011;7812;50.072;7.036;2023-04-25T03:19:29;7.47;;;6.57;;
15425;SDS011;7812;50.072;7.036;2023-04-25T03:21:54;8.33;;;6.87;;
15425;SDS011;7812;50.072;7.036;2023-04-25T03:24:20;7.33;;;6.50;;
15425;SDS011;7812;50.072;7.036;2023-04-25T03:26:49;8.43;;;7.13;;
15425;SDS011;7812;50.072;7.036;2023-04-25T03:29:14;7.83;;;7.03;;
15425;SDS011;7812;50.072;7.036;2023-04-25T03:31:40;8.37;;;6.97;;
15425;SDS011;7812;50.072;7.036;2023-04-25T03:34:05;7.50;;;6.70;;
15425;SDS011;7812;50.072;7.036;2023-04-25T03:36:31;8.53;;;6.60;;
15425;SDS011;7812;50.072;7.036;2023-04-25T03:38:57;8.63;;;7.73;;
15425;SDS011;7812;50.072;7.036;2023-04-25T03:41:23;7.77;;;7.07;;
15425;SDS011;7812;50.072;7.036;2023-04-25T03:43:48;7.43;;;6.57;;
15425;SDS011;7812;50.072;7.036;2023-04-25T03:46:14;8.60;;;7.47;;
15425;SDS011;7812;50.072;7.036;2023-04-25T03:48:40;8.77;;;7.13;;
15425;SDS011;7812;50.072;7.036;2023-04-25T03:51:05;8.50;;;7.10;;
15425;SDS011;7812;50.072;7.036;2023-04-25T03:53:31;7.67;;;6.87;;
15425;SDS011;7812;50.072;7.036;2023-04-25T03:55:57;8.97;;;7.97;;
15425;SDS011;7812;50.072;7.036;2023-04-25T03:58:22;8.40;;;7.13;;
15425;SDS011;7812;50.072;7.036;2023-04-25T04:00:49;8.50;;;7.57;;
15425;SDS011;7812;50.072;7.036;2023-04-25T04:03:15;8.17;;;7.40;;
15425;SDS011;7812;50.072;7.036;2023-04-25T04:05:40;8.67;;;7.23;;
15425;SDS011;7812;50.072;7.036;2023-04-25T04:08:06;11.47;;;9.00;;
15425;SDS011;7812;50.072;7.036;2023-04-25T04:10:33;7.90;;;6.93;;
15425;SDS011;7812;50.072;7.036;2023-04-25T04:12:59;7.70;;;6.90;;
15425;SDS011;7812;50.072;7.036;2023-04-25T04:15:25;7.40;;;6.60;;
15425;SDS011;7812;50.072;7.036;2023-04-25T04:17:50;8.63;;;7.47;;
15425;SDS011;7812;50.072;7.036;2023-04-25T04:20:17;9.57;;;7.90;;
15425;SDS011;7812;50.072;7.036;2023-04-25T04:22:43;8.17;;;7.27;;
15425;SDS011;7812;50.072;7.036;2023-04-25T04:25:09;7.50;;;6.80;;
15425;SDS011;7812;50.072;7.036;2023-04-25T04:27:36;7.77;;;6.77;;
15425;SDS011;7812;50.072;7.036;2023-04-25T04:30:02;8.10;;;7.30;;
15425;SDS011;7812;50.072;7.036;2023-04-25T04:32:29;7.23;;;6.53;;
15425;SDS011;7812;50.072;7.036;2023-04-25T04:34:55;7.83;;;6.97;;
15425;SDS011;7812;50.072;7.036;2023-04-25T04:37:21;9.27;;;8.37;;
15425;SDS011;7812;50.072;7.036;2023-04-25T04:39:47;8.00;;;7.20;;
15425;SDS011;7812;50.072;7.036;2023-04-25T04:42:13;8.80;;;7.87;;
15425;SDS011;7812;50.072;7.036;2023-04-25T04:44:39;7.20;;;6.20;;
15425;SDS011;7812;50.072;7.036;2023-04-25T04:47:04;7.27;;;6.57;;
15425;SDS011;7812;50.072;7.036;2023-04-25T04:49:31;6.50;;;5.90;;
15425;SDS011;7812;50.072;7.036;2023-04-25T04:51:57;7.90;;;7.10;;
15425;SDS011;7812;50.072;7.036;2023-04-25T04:54:24;8.23;;;6.30;;
15425;SDS011;7812;50.072;7.036;2023-04-25T04:56:50;6.60;;;6.00;;
15425;SDS011;7812;50.072;7.036;2023-04-25T04:59:17;8.43;;;6.83;;
15425;SDS011;7812;50.072;7.036;2023-04-25T05:01:43;10.47;;;5.93;;
15425;SDS011;7812;50.072;7.036;2023-04-25T05:04:08;7.87;;;6.50;;
15425;SDS011;7812;50.072;7.036;2023-04-25T05:06:36;7.37;;;6.60;;
15425;SDS011;7812;50.072;7.036;2023-04-25T05:09:01;7.13;;;5.97;;
15425;SDS011;7812;50.072;7.036;2023-04-25T05:11:27;7.90;;;7.17;;
15425;SDS011;7812;50.072;7.036;2023-04-25T05:13:53;7.40;;;6.37;;
15425;SDS011;7812;50.072;7.036;2023-04-25T05:16:19;7.87;;;7.03;;
15425;SDS011;7812;50.072;7.036;2023-04-25T05:18:45;7.63;;;6.83;;
15425;SDS011;7812;50.072;7.036;2023-04-25T05:21:13;7.23;;;6.50;;
15425;SDS011;7812;50.072;7.036;2023-04-25T05:23:39;8.50;;;6.77;;
15425;SDS011;7812;50.072;7.036;2023-04-25T05:26:04;6.87;;;6.27;;
15425;SDS011;7812;50.072;7.036;2023-04-25T05:28:30;7.87;;;6.23;;
15425;SDS011;7812;50.072;7.036;2023-04-25T05:30:56;6.30;;;5.70;;
15425;SDS011;7812;50.072;7.036;2023-04-25T05:33:22;7.33;;;6.13;;
15425;SDS011;7812;50.072;7.036;2023-04-25T05:35:48;7.83;;;7.03;;
15425;SDS011;7812;50.072;7.036;2023-04-25T05:38:13;7.80;;;7.10;;
15425;SDS011;7812;50.072;7.036;2023-04-25T05:40:39;8.87;;;7.80;;
15425;SDS011;7812;50.072;7.036;2023-04-25T05:43:05;7.43;;;6.73;;
15425;SDS011;7812;50.072;7.036;2023-04-25T05:45:32;7.27;;;6.57;;
15425;SDS011;7812;50.072;7.036;2023-04-25T05:47:57;6.60;;;6.00;;
15425;SDS011;7812;50.072;7.036;2023-04-25T05:50:23;6.73;;;6.03;;
15425;SDS011;7812;50.072;7.036;2023-04-25T05:52:49;7.73;;;5.97;;
15425;SDS011;7812;50.072;7.036;2023-04-25T05:55:15;7.27;;;6.33;;
15425;SDS011;7812;50.072;7.036;2023-04-25T05:57:41;10.13;;;6.97;;
15425;SDS011;7812;50.072;7.036;2023-04-25T06:00:12;8.87;;;6.87;;
15425;SDS011;7812;50.072;7.036;2023-04-25T06:02:40;9.63;;;7.77;;
15425;SDS011;7812;50.072;7.036;2023-04-25T06:05:06;9.77;;;7.10;;
15425;SDS011;7812;50.072;7.036;2023-04-25T06:07:32;9.43;;;6.43;;
15425;SDS011;7812;50.072;7.036;2023-04-25T06:09:58;7.03;;;5.67;;
15425;SDS011;7812;50.072;7.036;2023-04-25T06:12:25;7.57;;;6.20;;
15425;SDS011;7812;50.072;7.036;2023-04-25T06:14:51;11.37;;;6.43;;
15425;SDS011;7812;50.072;7.036;2023-04-25T06:17:17;8.90;;;6.50;;
15425;SDS011;7812;50.072;7.036;2023-04-25T06:19:43;9.93;;;6.37;;
15425;SDS011;7812;50.072;7.036;2023-04-25T06:22:08;9.30;;;6.20;;
15425;SDS011;7812;50.072;7.036;2023-04-25T06:24:36;7.43;;;6.13;;
15425;SDS011;7812;50.072;7.036;2023-04-25T06:27:01;10.60;;;7.00;;
15425;SDS011;7812;50.072;7.036;2023-04-25T06:29:27;9.17;;;6.40;;
15425;SDS011;7812;50.072;7.036;2023-04-25T06:31:53;10.43;;;7.27;;
15425;SDS011;7812;50.072;7.036;2023-04-25T06:34:18;9.23;;;7.13;;
15425;SDS011;7812;50.072;7.036;2023-04-25T06:36:44;11.53;;;7.00;;
15425;SDS011;7812;50.072;7.036;2023-04-25T06:39:10;10.57;;;7.07;;
15425;SDS011;7812;50.072;7.036;2023-04-25T06:41:36;9.60;;;6.20;;
15425;SDS011;7812;50.072;7.036;2023-04-25T06:44:02;10.83;;;6.40;;
15425;SDS011;7812;50.072;7.036;2023-04-25T06:46:28;8.07;;;5.80;;
15425;SDS011;7812;50.072;7.036;2023-04-25T06:48:53;8.93;;;4.93;;
15425;SDS011;7812;50.072;7.036;2023-04-25T06:51:19;9.17;;;4.93;;
15425;SDS011;7812;50.072;7.036;2023-04-25T06:53:46;8.23;;;4.97;;
15425;SDS011;7812;50.072;7.036;2023-04-25T06:56:12;9.80;;;5.10;;
15425;SDS011;7812;50.072;7.036;2023-04-25T06:58:37;6.33;;;3.87;;
15425;SDS011;7812;50.072;7.036;2023-04-25T07:01:03;6.77;;;3.53;;
15425;SDS011;7812;50.072;7.036;2023-04-25T07:03:29;5.13;;;3.00;;
15425;SDS011;7812;50.072;7.036;2023-04-25T07:05:55;5.80;;;3.07;;
15425;SDS011;7812;50.072;7.036;2023-04-25T07:08:20;7.40;;;3.70;;
15425;SDS011;7812;50.072;7.036;2023-04-25T07:10:46;3.70;;;2.80;;
15425;SDS011;7812;50.072;7.036;2023-04-25T07:13:12;5.80;;;3.03;;
15425;SDS011;7812;50.072;7.036;2023-04-25T07:15:37;6.33;;;3.10;;
15425;SDS011;7812;50.072;7.036;2023-04-25T07:18:03;6.67;;;3.53;;
15425;SDS011;7812;50.072;7.036;2023-04-25T07:20:29;4.77;;;3.90;;
15425;SDS011;7812;50.072;7.036;2023-04-25T07:22:56;4.53;;;3.70;;
15425;SDS011;7812;50.072;7.036;2023-04-25T07:25:22;5.50;;;3.20;;
15425;SDS011;7812;50.072;7.036;2023-04-25T07:27:48;6.73;;;3.70;;
15425;SDS011;7812;50.072;7.036;2023-04-25T07:30:13;4.30;;;3.10;;
15425;SDS011;7812;50.072;7.036;2023-04-25T07:32:39;5.43;;;2.97;;
15425;SDS011;7812;50.072;7.036;2023-04-25T07:35:05;7.43;;;3.00;;
15425;SDS011;7812;50.072;7.036;2023-04-25T07:37:32;5.60;;;3.20;;
15425;SDS011;7812;50.072;7.036;2023-04-25T07:39:58;7.73;;;3.17;;
15425;SDS011;7812;50.072;7.036;2023-04-25T07:42:24;3.03;;;2.43;;
15425;SDS011;7812;50.072;7.036;2023-04-25T07:44:51;6.90;;;3.30;;
15425;SDS011;7812;50.072;7.036;2023-04-25T07:47:17;3.13;;;2.77;;
15425;SDS011;7812;50.072;7.036;2023-04-25T07:49:44;5.20;;;3.47;;
15425;SDS011;7812;50.072;7.036;2023-04-25T07:52:10;4.80;;;3.00;;
15425;SDS011;7812;50.072;7.036;2023-04-25T07:54:36;5.47;;;3.20;;
15425;SDS011;7812;50.072;7.036;2023-04-25T07:57:02;3.53;;;2.40;;
15425;SDS011;7812;50.072;7.036;2023-04-25T07:59:29;5.27;;;2.57;;
15425;SDS011;7812;50.072;7.036;2023-04-25T08:01:54;7.07;;;2.90;;
15425;SDS011;7812;50.072;7.036;2023-04-25T08:04:22;4.53;;;3.40;;
15425;SDS011;7812;50.072;7.036;2023-04-25T08:06:48;4.80;;;3.03;;
15425;SDS011;7812;50.072;7.036;2023-04-25T08:09:14;4.07;;;2.70;;
15425;SDS011;7812;50.072;7.036;2023-04-25T08:11:40;4.83;;;2.67;;
15425;SDS011;7812;50.072;7.036;2023-04-25T08:14:06;3.77;;;2.90;;
15425;SDS011;7812;50.072;7.036;2023-04-25T08:16:32;4.47;;;2.80;;
15425;SDS011;7812;50.072;7.036;2023-04-25T08:18:59;7.27;;;3.90;;
15425;SDS011;7812;50.072;7.036;2023-04-25T08:21:25;5.40;;;2.97;;
15425;SDS011;7812;50.072;7.036;2023-04-25T08:23:52;5.10;;;3.00;;
15425;SDS011;7812;50.072;7.036;2023-04-25T08:26:18;6.17;;;3.33;;
15425;SDS011;7812;50.072;7.036;2023-04-25T08:28:43;4.90;;;2.60;;
15425;SDS011;7812;50.072;7.036;2023-04-25T08:31:10;3.50;;;2.30;;
15425;SDS011;7812;50.072;7.036;2023-04-25T08:33:36;5.60;;;3.03;;
15425;SDS011;7812;50.072;7.036;2023-04-25T08:36:02;6.83;;;3.13;;
15425;SDS011;7812;50.072;7.036;2023-04-25T08:38:28;6.17;;;3.13;;
15425;SDS011;7812;50.072;7.036;2023-04-25T08:40:53;5.93;;;2.80;;
15425;SDS011;7812;50.072;7.036;2023-04-25T08:43:20;5.03;;;2.80;;
15425;SDS011;7812;50.072;7.036;2023-04-25T08:45:46;5.50;;;3.30;;
15425;SDS011;7812;50.072;7.036;2023-04-25T08:48:13;7.60;;;2.60;;
15425;SDS011;7812;50.072;7.036;2023-04-25T08:50:40;5.97;;;2.70;;
15425;SDS011;7812;50.072;7.036;2023-04-25T08:53:17;3.87;;;2.37;;
15425;SDS011;7812;50.072;7.036;2023-04-25T08:55:50;4.87;;;2.57;;
15425;SDS011;7812;50.072;7.036;2023-04-25T08:58:19;7.47;;;3.27;;
15425;SDS011;7812;50.072;7.036;2023-04-25T09:00:47;5.47;;;2.90;;
15425;SDS011;7812;50.072;7.036;2023-04-25T09:03:14;6.33;;;3.10;;
15425;SDS011;7812;50.072;7.036;2023-04-25T09:05:40;4.10;;;2.97;;
15425;SDS011;7812;50.072;7.036;2023-04-25T09:08:07;5.17;;;2.80;;
15425;SDS011;7812;50.072;7.036;2023-04-25T09:10:33;4.83;;;3.17;;
15425;SDS011;7812;50.072;7.036;2023-04-25T09:15:48;4.20;;;2.47;;
15425;SDS011;7812;50.072;7.036;2023-04-25T09:18:26;7.33;;;3.03;;
15425;SDS011;7812;50.072;7.036;2023-04-25T09:20:54;10.80;;;3.30;;
15425;SDS011;7812;50.072;7.036;2023-04-25T09:23:21;3.67;;;2.57;;
15425;SDS011;7812;50.072;7.036;2023-04-25T09:25:48;6.43;;;2.73;;
15425;SDS011;7812;50.072;7.036;2023-04-25T09:28:16;5.17;;;3.30;;
15425;SDS011;7812;50.072;7.036;2023-04-25T09:30:47;4.80;;;2.50;;
15425;SDS011;7812;50.072;7.036;2023-04-25T09:33:14;6.17;;;2.17;;
15425;SDS011;7812;50.072;7.036;2023-04-25T09:35:42;5.53;;;2.80;;
15425;SDS011;7812;50.072;7.036;2023-04-25T09:38:11;4.23;;;2.77;;
15425;SDS011;7812;50.072;7.036;2023-04-25T09:40:42;4.33;;;2.93;;
15425;SDS011;7812;50.072;7.036;2023-04-25T09:43:11;4.47;;;2.77;;
15425;SDS011;7812;50.072;7.036;2023-04-25T09:45:45;4.97;;;2.90;;
15425;SDS011;7812;50.072;7.036;2023-04-25T09:48:15;3.87;;;2.77;;
15425;SDS011;7812;50.072;7.036;2023-04-25T09:53:44;6.43;;;2.90;;
15425;SDS011;7812;50.072;7.036;2023-04-25T09:56:14;5.23;;;2.80;;
15425;SDS011;7812;50.072;7.036;2023-04-25T09:58:41;6.97;;;2.97;;
15425;SDS011;7812;50.072;7.036;2023-04-25T10:01:08;5.53;;;2.83;;
15425;SDS011;7812;50.072;7.036;2023-04-25T10:03:36;7.33;;;2.90;;
15425;SDS011;7812;50.072;7.036;2023-04-25T10:06:07;6.67;;;2.73;;
15425;SDS011;7812;50.072;7.036;2023-04-25T10:08:37;5.83;;;2.67;;
15425;SDS011;7812;50.072;7.036;2023-04-25T10:11:04;8.47;;;3.10;;
15425;SDS011;7812;50.072;7.036;2023-04-25T10:13:31;7.60;;;2.83;;
15425;SDS011;7812;50.072;7.036;2023-04-25T10:15:58;6.20;;;2.63;;
15425;SDS011;7812;50.072;7.036;2023-04-25T10:18:24;7.00;;;3.47;;
15425;SDS011;7812;50.072;7.036;2023-04-25T10:21:00;7.23;;;3.10;;
15425;SDS011;7812;50.072;7.036;2023-04-25T10:23:29;4.77;;;3.10;;
15425;SDS011;7812;50.072;7.036;2023-04-25T10:25:55;6.30;;;2.27;;
15425;SDS011;7812;50.072;7.036;2023-04-25T10:28:22;5.43;;;3.03;;
15425;SDS011;7812;50.072;7.036;2023-04-25T10:30:57;6.30;;;3.17;;
15425;SDS011;7812;50.072;7.036;2023-04-25T10:36:11;7.13;;;2.80;;
15425;SDS011;7812;50.072;7.036;2023-04-25T10:38:37;6.33;;;2.93;;
15425;SDS011;7812;50.072;7.036;2023-04-25T10:41:09;6.07;;;2.90;;
15425;SDS011;7812;50.072;7.036;2023-04-25T10:46:27;4.17;;;2.53;;
15425;SDS011;7812;50.072;7.036;2023-04-25T10:51:27;4.67;;;2.37;;
15425;SDS011;7812;50.072;7.036;2023-04-25T10:54:03;8.83;;;3.20;;
15425;SDS011;7812;50.072;7.036;2023-04-25T11:01:41;3.83;;;2.50;;
15425;SDS011;7812;50.072;7.036;2023-04-25T11:04:24;4.27;;;2.40;;
15425;SDS011;7812;50.072;7.036;2023-04-25T11:09:33;5.17;;;2.20;;
15425;SDS011;7812;50.072;7.036;2023-04-25T11:12:00;3.63;;;2.27;;
15425;SDS011;7812;50.072;7.036;2023-04-25T11:14:26;4.27;;;2.50;;
15425;SDS011;7812;50.072;7.036;2023-04-25T11:16:53;5.43;;;2.40;;
15425;SDS011;7812;50.072;7.036;2023-04-25T11:19:20;4.90;;;2.13;;
15425;SDS011;7812;50.072;7.036;2023-04-25T11:21:47;3.57;;;2.00;;
15425;SDS011;7812;50.072;7.036;2023-04-25T11:24:15;5.83;;;2.33;;
15425;SDS011;7812;50.072;7.036;2023-04-25T11:26:42;3.23;;;1.87;;
15425;SDS011;7812;50.072;7.036;2023-04-25T11:29:08;6.87;;;2.43;;
15425;SDS011;7812;50.072;7.036;2023-04-25T11:31:34;5.60;;;2.47;;
15425;SDS011;7812;50.072;7.036;2023-04-25T11:34:00;5.03;;;2.37;;
15425;SDS011;7812;50.072;7.036;2023-04-25T11:36:25;3.13;;;2.07;;
15425;SDS011;7812;50.072;7.036;2023-04-25T11:38:52;5.77;;;2.20;;
15425;SDS011;7812;50.072;7.036;2023-04-25T11:41:21;6.23;;;2.10;;
15425;SDS011;7812;50.072;7.036;2023-04-25T11:43:47;4.57;;;2.17;;
15425;SDS011;7812;50.072;7.036;2023-04-25T11:46:15;2.50;;;1.80;;
15425;SDS011;7812;50.072;7.036;2023-04-25T11:48:41;5.33;;;2.20;;
15425;SDS011;7812;50.072;7.036;2023-04-25T11:51:07;3.87;;;2.10;;
15425;SDS011;7812;50.072;7.036;2023-04-25T11:53:34;4.17;;;2.10;;
15425;SDS011;7812;50.072;7.036;2023-04-25T11:56:00;3.47;;;2.37;;
15425;SDS011;7812;50.072;7.036;2023-04-25T11:58:26;3.43;;;1.90;;
15425;SDS011;7812;50.072;7.036;2023-04-25T12:00:53;5.60;;;2.20;;
15425;SDS011;7812;50.072;7.036;2023-04-25T12:03:19;4.30;;;2.10;;
15425;SDS011;7812;50.072;7.036;2023-04-25T12:05:46;3.93;;;1.97;;
15425;SDS011;7812;50.072;7.036;2023-04-25T12:08:15;3.70;;;1.60;;
15425;SDS011;7812;50.072;7.036;2023-04-25T12:10:45;5.27;;;1.90;;
15425;SDS011;7812;50.072;7.036;2023-04-25T12:13:17;5.20;;;2.00;;
15425;SDS011;7812;50.072;7.036;2023-04-25T12:15:51;4.13;;;2.20;;
15425;SDS011;7812;50.072;7.036;2023-04-25T12:18:22;5.60;;;2.13;;
15425;SDS011;7812;50.072;7.036;2023-04-25T12:20:52;3.07;;;1.60;;
15425;SDS011;7812;50.072;7.036;2023-04-25T12:23:24;2.40;;;1.63;;
15425;SDS011;7812;50.072;7.036;2023-04-25T12:25:51;3.30;;;1.50;;
15425;SDS011;7812;50.072;7.036;2023-04-25T12:33:24;4.00;;;1.80;;
15425;SDS011;7812;50.072;7.036;2023-04-25T12:35:51;3.07;;;1.83;;
15425;SDS011;7812;50.072;7.036;2023-04-25T12:39:00;4.83;;;1.90;;
15425;SDS011;7812;50.072;7.036;2023-04-25T12:41:07;2.83;;;1.97;;
15425;SDS011;7812;50.072;7.036;2023-04-25T12:43:33;3.83;;;1.90;;
15425;SDS011;7812;50.072;7.036;2023-04-25T12:45:59;3.90;;;1.60;;
15425;SDS011;7812;50.072;7.036;2023-04-25T12:48:25;5.83;;;2.30;;
15425;SDS011;7812;50.072;7.036;2023-04-25T12:50:51;5.10;;;2.03;;
15425;SDS011;7812;50.072;7.036;2023-04-25T12:53:20;4.17;;;1.87;;
15425;SDS011;7812;50.072;7.036;2023-04-25T12:55:48;5.50;;;2.00;;
15425;SDS011;7812;50.072;7.036;2023-04-25T12:58:14;5.37;;;2.07;;
15425;SDS011;7812;50.072;7.036;2023-04-25T13:00:40;5.07;;;2.20;;
15425;SDS011;7812;50.072;7.036;2023-04-25T13:03:07;4.50;;;1.97;;
15425;SDS011;7812;50.072;7.036;2023-04-25T13:05:34;8.33;;;2.47;;
15425;SDS011;7812;50.072;7.036;2023-04-25T13:07:59;6.40;;;2.27;;
15425;SDS011;7812;50.072;7.036;2023-04-25T13:10:25;2.10;;;1.70;;
15425;SDS011;7812;50.072;7.036;2023-04-25T13:12:51;2.47;;;1.67;;
15425;SDS011;7812;50.072;7.036;2023-04-25T13:15:16;5.53;;;2.17;;
15425;SDS011;7812;50.072;7.036;2023-04-25T13:17:42;2.60;;;1.97;;
15425;SDS011;7812;50.072;7.036;2023-04-25T13:20:08;3.00;;;1.70;;
15425;SDS011;7812;50.072;7.036;2023-04-25T13:22:35;4.87;;;2.40;;
15425;SDS011;7812;50.072;7.036;2023-04-25T13:25:02;3.17;;;1.90;;
15425;SDS011;7812;50.072;7.036;2023-04-25T13:27:29;3.23;;;1.60;;
15425;SDS011;7812;50.072;7.036;2023-04-25T13:29:55;5.83;;;1.97;;
15425;SDS011;7812;50.072;7.036;2023-04-25T13:32:21;2.07;;;1.60;;
15425;SDS011;7812;50.072;7.036;2023-04-25T13:34:47;2.97;;;1.80;;
15425;SDS011;7812;50.072;7.036;2023-04-25T13:37:12;4.40;;;2.00;;
15425;SDS011;7812;50.072;7.036;2023-04-25T13:39:40;5.03;;;1.73;;
15425;SDS011;7812;50.072;7.036;2023-04-25T13:42:06;5.53;;;1.87;;
15425;SDS011;7812;50.072;7.036;2023-04-25T13:44:31;4.63;;;2.10;;
15425;SDS011;7812;50.072;7.036;2023-04-25T13:46:57;6.63;;;2.07;;
15425;SDS011;7812;50.072;7.036;2023-04-25T13:49:23;6.07;;;2.30;;
15425;SDS011;7812;50.072;7.036;2023-04-25T13:51:48;6.67;;;1.90;;
15425;SDS011;7812;50.072;7.036;2023-04-25T13:54:14;6.03;;;2.47;;
15425;SDS011;7812;50.072;7.036;2023-04-25T13:56:40;3.57;;;1.80;;
15425;SDS011;7812;50.072;7.036;2023-04-25T13:59:07;5.47;;;2.23;;
15425;SDS011;7812;50.072;7.036;2023-04-25T14:01:32;1.83;;;1.40;;
15425;SDS011;7812;50.072;7.036;2023-04-25T14:04:00;2.93;;;1.90;;
15425;SDS011;7812;50.072;7.036;2023-04-25T14:06:31;3.57;;;2.07;;
15425;SDS011;7812;50.072;7.036;2023-04-25T14:08:57;5.00;;;1.83;;
15425;SDS011;7812;50.072;7.036;2023-04-25T14:11:22;5.30;;;1.90;;
15425;SDS011;7812;50.072;7.036;2023-04-25T14:13:48;4.67;;;1.60;;
15425;SDS011;7812;50.072;7.036;2023-04-25T14:16:14;4.90;;;1.73;;
15425;SDS011;7812;50.072;7.036;2023-04-25T14:18:41;4.27;;;2.17;;
15425;SDS011;7812;50.072;7.036;2023-04-25T14:21:06;6.50;;;1.80;;
15425;SDS011;7812;50.072;7.036;2023-04-25T14:23:33;3.57;;;1.97;;
15425;SDS011;7812;50.072;7.036;2023-04-25T14:26:00;4.67;;;2.60;;
15425;SDS011;7812;50.072;7.036;2023-04-25T14:28:26;5.97;;;1.90;;
15425;SDS011;7812;50.072;7.036;2023-04-25T14:30:52;2.17;;;1.73;;
15425;SDS011;7812;50.072;7.036;2023-04-25T14:33:17;5.67;;;2.17;;
15425;SDS011;7812;50.072;7.036;2023-04-25T14:35:43;5.50;;;2.00;;
15425;SDS011;7812;50.072;7.036;2023-04-25T14:38:09;3.80;;;2.33;;
15425;SDS011;7812;50.072;7.036;2023-04-25T14:40:35;3.67;;;2.30;;
15425;SDS011;7812;50.072;7.036;2023-04-25T14:43:01;3.67;;;1.93;;
15425;SDS011;7812;50.072;7.036;2023-04-25T14:45:27;5.37;;;2.03;;
15425;SDS011;7812;50.072;7.036;2023-04-25T14:47:53;4.10;;;1.73;;
15425;SDS011;7812;50.072;7.036;2023-04-25T14:50:19;5.53;;;2.10;;
15425;SDS011;7812;50.072;7.036;2023-04-25T14:52:44;5.03;;;2.23;;
15425;SDS011;7812;50.072;7.036;2023-04-25T14:55:11;5.30;;;2.53;;
15425;SDS011;7812;50.072;7.036;2023-04-25T14:57:38;6.07;;;2.30;;
15425;SDS011;7812;50.072;7.036;2023-04-25T15:00:04;5.87;;;2.60;;
15425;SDS011;7812;50.072;7.036;2023-04-25T15:02:34;4.33;;;2.33;;
15425;SDS011;7812;50.072;7.036;2023-04-25T15:05:00;4.27;;;2.53;;
15425;SDS011;7812;50.072;7.036;2023-04-25T15:07:26;5.87;;;2.50;;
15425;SDS011;7812;50.072;7.036;2023-04-25T15:09:51;5.23;;;2.80;;
15425;SDS011;7812;50.072;7.036;2023-04-25T15:12:18;4.63;;;2.23;;
15425;SDS011;7812;50.072;7.036;2023-04-25T15:14:44;4.80;;;2.63;;
15425;SDS011;7812;50.072;7.036;2023-04-25T15:17:10;5.07;;;2.60;;
15425;SDS011;7812;50.072;7.036;2023-04-25T15:19:38;2.63;;;2.10;;
15425;SDS011;7812;50.072;7.036;2023-04-25T15:22:05;4.20;;;2.33;;
15425;SDS011;7812;50.072;7.036;2023-04-25T15:24:32;4.10;;;1.97;;